Time;durP1;ratioP1;P1;durP2;ratioP2;P2;SDS_P1;SDS_P2;PMS_P1;PMS_P2;Temp;Humidity;BMP_temperature;BMP_pressure;BME280_temperature;BME280_humidity;BME280_pressure;Samples;Min_cycle;Max_cycle;Signal;HPM_P1;HPM_P2
2021/09/28 00:01:13;;;;;;;5.90;3.30;;;;;;;;;;5070973;28;20452;-83
2021/09/28 00:03:40;;;;;;;4.10;2.77;;;;;;;;;;5071810;28;20460;-83
2021/09/28 00:06:09;;;;;;;5.40;2.93;;;;;;;;;;5071331;28;20432;-81
2021/09/28 00:08:37;;;;;;;6.50;3.67;;;;;;;;;;5071986;28;20440;-83
2021/09/28 00:11:04;;;;;;;5.50;3.13;;;;;;;;;;5072204;28;20460;-82
2021/09/28 00:13:32;;;;;;;6.70;3.00;;;;;;;;;;5072295;28;20498;-86
2021/09/28 00:15:59;;;;;;;6.47;3.90;;;;;;;;;;5089641;28;20449;-82
2021/09/28 00:18:26;;;;;;;12.37;3.70;;;;;;;;;;5076911;28;20438;-82
2021/09/28 00:20:53;;;;;;;7.30;3.00;;;;;;;;;;5094328;28;20456;-83
2021/09/28 00:23:22;;;;;;;7.07;3.57;;;;;;;;;;5077926;28;20802;-84
2021/09/28 00:25:49;;;;;;;5.57;3.40;;;;;;;;;;5067952;28;20789;-82
2021/09/28 00:28:16;;;;;;;5.33;2.90;;;;;;;;;;5070887;28;20933;-82
2021/09/28 00:30:44;;;;;;;5.97;2.93;;;;;;;;;;5071579;28;20452;-82
2021/09/28 00:33:11;;;;;;;5.63;3.27;;;;;;;;;;5071851;28;20851;-83
2021/09/28 00:35:38;;;;;;;5.30;3.07;;;;;;;;;;5071379;28;20531;-84
2021/09/28 00:38:06;;;;;;;9.33;4.20;;;;;;;;;;5067144;28;20454;-80
2021/09/28 00:40:34;;;;;;;9.10;3.00;;;;;;;;;;5045719;28;20486;-82
2021/09/28 00:43:01;;;;;;;5.90;3.70;;;;;;;;;;5062660;28;20464;-82
2021/09/28 00:45:29;;;;;;;13.93;3.67;;;;;;;;;;5070174;28;20451;-82
2021/09/28 00:47:56;;;;;;;4.87;3.23;;;;;;;;;;5071689;28;20446;-83
2021/09/28 00:50:23;;;;;;;5.20;3.20;;;;;;;;;;5063724;28;20479;-83
2021/09/28 00:52:51;;;;;;;5.77;2.83;;;;;;;;;;5071994;28;20553;-82
2021/09/28 00:55:18;;;;;;;3.90;2.57;;;;;;;;;;5073530;28;20503;-82
2021/09/28 00:57:47;;;;;;;4.20;3.07;;;;;;;;;;5060085;28;20559;-83
2021/09/28 01:00:15;;;;;;;9.10;2.93;;;;;;;;;;5063928;28;20480;-83
2021/09/28 01:02:43;;;;;;;5.70;3.00;;;;;;;;;;5066811;28;20456;-82
2021/09/28 01:05:11;;;;;;;5.93;3.23;;;;;;;;;;5066280;28;20464;-82
2021/09/28 01:07:38;;;;;;;4.87;2.90;;;;;;;;;;5063576;28;20463;-80
2021/09/28 01:10:05;;;;;;;6.20;3.20;;;;;;;;;;5070546;28;20467;-82
2021/09/28 01:12:33;;;;;;;5.57;3.20;;;;;;;;;;5063831;28;20489;-81
2021/09/28 01:15:01;;;;;;;5.77;3.20;;;;;;;;;;5065245;28;20995;-85
2021/09/28 01:17:28;;;;;;;5.17;2.87;;;;;;;;;;5067627;28;20459;-82
2021/09/28 01:19:55;;;;;;;5.30;2.87;;;;;;;;;;5063918;28;20943;-83
2021/09/28 01:22:24;;;;;;;7.40;3.13;;;;;;;;;;5066919;28;20827;-82
2021/09/28 01:24:51;;;;;;;7.90;2.83;;;;;;;;;;5070259;28;20451;-83
2021/09/28 01:27:19;;;;;;;5.60;2.90;;;;;;;;;;5064294;28;20454;-84
2021/09/28 01:29:46;;;;;;;6.53;2.70;;;;;;;;;;5070553;28;20582;-80
2021/09/28 01:32:16;;;;;;;4.93;2.40;;;;;;;;;;5065125;28;20449;-83
2021/09/28 01:34:43;;;;;;;6.00;3.00;;;;;;;;;;5067022;28;20466;-84
2021/09/28 01:37:10;;;;;;;5.30;3.40;;;;;;;;;;5067071;28;20525;-83
2021/09/28 01:39:39;;;;;;;8.23;3.40;;;;;;;;;;5061402;28;20483;-82
2021/09/28 01:42:06;;;;;;;7.43;3.50;;;;;;;;;;5056849;28;20472;-83
2021/09/28 01:44:34;;;;;;;6.20;3.00;;;;;;;;;;5069300;28;20922;-84
2021/09/28 01:47:02;;;;;;;4.93;2.77;;;;;;;;;;5071775;28;20495;-82
2021/09/28 01:49:29;;;;;;;3.60;2.83;;;;;;;;;;5067509;28;20487;-81
2021/09/28 01:51:56;;;;;;;6.83;2.87;;;;;;;;;;5072951;28;20941;-82
2021/09/28 01:54:24;;;;;;;6.80;3.57;;;;;;;;;;5066718;28;20574;-84
2021/09/28 01:56:52;;;;;;;5.43;3.43;;;;;;;;;;5066652;28;20432;-82
2021/09/28 01:59:20;;;;;;;4.37;3.43;;;;;;;;;;5069890;28;20460;-82
2021/09/28 02:01:47;;;;;;;5.90;3.20;;;;;;;;;;5043501;28;20957;-83
2021/09/28 02:04:14;;;;;;;6.23;3.60;;;;;;;;;;5058678;28;20456;-83
2021/09/28 02:06:44;;;;;;;10.27;4.03;;;;;;;;;;5072733;28;20448;-81
2021/09/28 02:09:11;;;;;;;5.27;3.10;;;;;;;;;;5073108;28;20549;-84
2021/09/28 02:11:39;;;;;;;6.10;3.80;;;;;;;;;;5064705;28;20456;-81
2021/09/28 02:14:08;;;;;;;5.80;4.00;;;;;;;;;;5072679;28;20486;-83
2021/09/28 02:16:35;;;;;;;6.17;3.20;;;;;;;;;;5058782;28;20456;-82
2021/09/28 02:19:03;;;;;;;4.30;3.10;;;;;;;;;;5074390;28;20459;-82
2021/09/28 02:21:30;;;;;;;5.63;3.40;;;;;;;;;;5072304;28;20967;-82
2021/09/28 02:23:57;;;;;;;8.00;3.70;;;;;;;;;;5074358;28;20456;-82
2021/09/28 02:26:24;;;;;;;6.43;3.60;;;;;;;;;;5075707;28;20802;-80
2021/09/28 02:28:51;;;;;;;5.73;3.73;;;;;;;;;;5069981;28;20452;-81
2021/09/28 02:31:20;;;;;;;5.33;2.87;;;;;;;;;;5075014;28;20440;-83
2021/09/28 02:33:47;;;;;;;6.10;3.20;;;;;;;;;;5065091;28;21466;-81
2021/09/28 02:36:14;;;;;;;6.83;2.93;;;;;;;;;;5069189;28;20483;-84
2021/09/28 02:38:41;;;;;;;7.20;3.10;;;;;;;;;;5069729;28;20817;-85
2021/09/28 02:41:09;;;;;;;4.80;2.80;;;;;;;;;;5062771;28;20468;-82
2021/09/28 02:43:36;;;;;;;5.63;3.30;;;;;;;;;;5061010;28;20463;-82
2021/09/28 02:46:03;;;;;;;5.77;3.13;;;;;;;;;;5072566;28;20814;-82
2021/09/28 02:48:31;;;;;;;5.67;3.27;;;;;;;;;;5076173;28;20800;-84
2021/09/28 02:50:59;;;;;;;8.63;3.27;;;;;;;;;;5072157;28;20516;-84
2021/09/28 02:53:26;;;;;;;6.27;3.10;;;;;;;;;;5073797;28;20494;-82
2021/09/28 02:55:53;;;;;;;4.33;2.83;;;;;;;;;;5066354;28;20460;-84
2021/09/28 02:58:21;;;;;;;5.13;2.80;;;;;;;;;;5072049;28;20425;-84
2021/09/28 03:00:48;;;;;;;4.93;2.67;;;;;;;;;;5072065;28;20471;-83
2021/09/28 03:03:15;;;;;;;7.27;3.90;;;;;;;;;;5067419;28;20502;-83
2021/09/28 03:05:43;;;;;;;7.37;3.43;;;;;;;;;;5072802;28;20447;-83
2021/09/28 03:08:11;;;;;;;4.47;2.50;;;;;;;;;;5069487;28;20784;-83
2021/09/28 03:13:04;;;;;;;6.30;3.03;;;;;;;;;;5070266;28;20576;-82
2021/09/28 03:15:31;;;;;;;6.20;3.07;;;;;;;;;;5066216;28;20877;-82
2021/09/28 03:17:58;;;;;;;5.20;2.90;;;;;;;;;;5058120;28;20458;-84
2021/09/28 03:20:25;;;;;;;3.80;2.93;;;;;;;;;;5072795;28;20459;-82
2021/09/28 03:22:54;;;;;;;4.53;2.83;;;;;;;;;;5072739;28;20452;-83
2021/09/28 03:25:21;;;;;;;5.43;2.80;;;;;;;;;;5065546;28;20691;-83
2021/09/28 03:27:48;;;;;;;4.93;3.20;;;;;;;;;;5069779;28;20771;-83
2021/09/28 03:30:16;;;;;;;6.87;4.10;;;;;;;;;;5070720;28;20472;-83
2021/09/28 03:32:43;;;;;;;5.00;2.33;;;;;;;;;;5072872;28;20436;-84
2021/09/28 03:35:12;;;;;;;6.80;2.50;;;;;;;;;;5071778;28;20432;-82
2021/09/28 03:37:39;;;;;;;5.53;2.60;;;;;;;;;;5059831;28;20551;-84
2021/09/28 03:40:09;;;;;;;8.07;3.30;;;;;;;;;;5062513;28;20472;-82
2021/09/28 03:42:36;;;;;;;5.57;3.03;;;;;;;;;;5071761;28;20451;-81
2021/09/28 03:45:04;;;;;;;8.67;3.03;;;;;;;;;;5070245;28;20468;-82
2021/09/28 03:47:31;;;;;;;4.43;2.63;;;;;;;;;;5065660;28;20448;-85
2021/09/28 03:49:58;;;;;;;5.63;2.70;;;;;;;;;;5069343;28;20444;-82
2021/09/28 03:52:25;;;;;;;5.53;2.70;;;;;;;;;;5066037;28;20471;-85
2021/09/28 03:54:52;;;;;;;4.60;2.90;;;;;;;;;;5063936;28;20491;-83
2021/09/28 03:57:21;;;;;;;5.53;2.90;;;;;;;;;;5072848;28;20451;-83
2021/09/28 03:59:48;;;;;;;7.57;2.60;;;;;;;;;;5071448;28;20513;-84
2021/09/28 04:02:15;;;;;;;4.27;2.67;;;;;;;;;;5072898;28;20571;-82
2021/09/28 04:04:43;;;;;;;5.60;2.70;;;;;;;;;;5074596;28;20447;-83
2021/09/28 04:07:10;;;;;;;3.03;2.13;;;;;;;;;;5071762;28;20462;-84
2021/09/28 04:09:38;;;;;;;3.20;2.30;;;;;;;;;;5066833;28;20460;-83
2021/09/28 04:12:06;;;;;;;5.10;2.40;;;;;;;;;;5065367;28;20458;-85
2021/09/28 04:14:35;;;;;;;6.30;2.60;;;;;;;;;;5072160;28;20578;-85
2021/09/28 04:17:02;;;;;;;4.70;2.57;;;;;;;;;;5068042;28;20456;-84
2021/09/28 04:19:29;;;;;;;4.33;2.87;;;;;;;;;;5072138;28;20452;-83
2021/09/28 04:21:56;;;;;;;3.30;2.60;;;;;;;;;;5072685;28;20456;-83
2021/09/28 04:24:23;;;;;;;7.60;2.50;;;;;;;;;;5070690;28;20449;-86
2021/09/28 04:26:50;;;;;;;5.90;2.30;;;;;;;;;;5067784;28;20432;-84
2021/09/28 04:29:18;;;;;;;6.13;2.80;;;;;;;;;;5068990;28;20483;-81
2021/09/28 04:31:58;;;;;;;5.00;2.00;;;;;;;;;;5070072;28;20440;-81
2021/09/28 04:34:25;;;;;;;4.23;2.27;;;;;;;;;;5063649;28;20484;-81
2021/09/28 04:36:52;;;;;;;5.60;2.37;;;;;;;;;;5066390;28;20453;-78
2021/09/28 04:39:19;;;;;;;5.07;2.40;;;;;;;;;;5071939;28;20479;-81
2021/09/28 04:41:46;;;;;;;5.90;2.50;;;;;;;;;;5065981;28;20455;-80
2021/09/28 04:44:13;;;;;;;7.20;2.90;;;;;;;;;;5062383;28;20444;-79
2021/09/28 04:46:42;;;;;;;4.10;2.50;;;;;;;;;;5068372;28;20460;-77
2021/09/28 04:49:11;;;;;;;4.23;2.20;;;;;;;;;;5060531;28;20569;-80
2021/09/28 04:51:39;;;;;;;7.23;2.20;;;;;;;;;;5071046;28;20528;-80
2021/09/28 04:54:07;;;;;;;4.67;2.20;;;;;;;;;;5070864;28;20812;-79
2021/09/28 04:56:36;;;;;;;6.40;2.53;;;;;;;;;;5046293;28;20537;-80
2021/09/28 04:59:03;;;;;;;5.60;2.53;;;;;;;;;;5066929;28;20440;-78
2021/09/28 05:01:32;;;;;;;5.17;2.70;;;;;;;;;;5067539;28;20484;-79
2021/09/28 05:03:59;;;;;;;6.37;2.80;;;;;;;;;;5056668;28;21001;-80
2021/09/28 05:06:31;;;;;;;7.17;2.40;;;;;;;;;;5060091;28;21043;-80
2021/09/28 05:08:59;;;;;;;4.80;2.37;;;;;;;;;;5071327;28;20691;-78
2021/09/28 05:11:26;;;;;;;8.77;2.83;;;;;;;;;;5067042;28;20463;-78
2021/09/28 05:13:53;;;;;;;4.50;2.20;;;;;;;;;;5054114;28;20495;-79
2021/09/28 05:16:22;;;;;;;5.13;2.70;;;;;;;;;;5069523;28;20470;-79
2021/09/28 05:18:50;;;;;;;8.40;2.80;;;;;;;;;;5070657;28;20444;-80
2021/09/28 05:21:17;;;;;;;4.57;2.20;;;;;;;;;;5065743;28;20467;-78
2021/09/28 05:23:46;;;;;;;5.63;2.27;;;;;;;;;;5071080;28;20879;-79
2021/09/28 05:26:14;;;;;;;2.37;1.87;;;;;;;;;;5061745;28;20464;-79
2021/09/28 05:28:41;;;;;;;4.93;2.40;;;;;;;;;;5055036;28;20456;-80
2021/09/28 05:31:08;;;;;;;4.43;2.60;;;;;;;;;;5069003;28;20461;-80
2021/09/28 05:33:36;;;;;;;4.67;2.70;;;;;;;;;;5070174;28;20444;-81
2021/09/28 05:36:03;;;;;;;5.43;2.33;;;;;;;;;;5062751;28;20456;-81
2021/09/28 05:38:30;;;;;;;4.57;2.60;;;;;;;;;;5070250;28;20554;-79
2021/09/28 05:40:59;;;;;;;3.40;2.10;;;;;;;;;;5067092;28;20830;-79
2021/09/28 05:43:26;;;;;;;6.03;2.67;;;;;;;;;;5055697;28;20514;-78
2021/09/28 05:45:53;;;;;;;4.33;2.37;;;;;;;;;;5049753;28;20839;-80
2021/09/28 05:48:20;;;;;;;4.13;2.80;;;;;;;;;;5070563;28;20443;-79
2021/09/28 05:50:48;;;;;;;5.03;2.57;;;;;;;;;;5063108;28;20475;-79
2021/09/28 05:53:15;;;;;;;4.20;2.53;;;;;;;;;;5062199;28;20460;-78
2021/09/28 05:55:42;;;;;;;5.20;2.90;;;;;;;;;;5071483;28;20494;-79
2021/09/28 05:58:11;;;;;;;8.50;3.40;;;;;;;;;;5055167;28;20441;-81
2021/09/28 06:00:39;;;;;;;4.33;2.53;;;;;;;;;;5059221;28;20499;-85
2021/09/28 06:03:06;;;;;;;7.33;2.83;;;;;;;;;;5071948;28;20460;-78
2021/09/28 06:05:34;;;;;;;5.20;2.23;;;;;;;;;;5064745;28;20429;-79
2021/09/28 06:08:01;;;;;;;7.30;2.67;;;;;;;;;;5056793;28;20467;-78
2021/09/28 06:10:28;;;;;;;4.20;2.60;;;;;;;;;;5064206;28;20498;-78
2021/09/28 06:12:56;;;;;;;8.23;2.90;;;;;;;;;;5070858;28;20436;-80
2021/09/28 06:15:25;;;;;;;3.40;2.50;;;;;;;;;;5068522;28;20479;-79
2021/09/28 06:17:55;;;;;;;8.20;2.97;;;;;;;;;;5071706;28;20784;-79
2021/09/28 06:23:59;;;;;;;4.93;3.07;;;;;;;;;;5010842;28;20447;-78
2021/09/28 06:26:28;;;;;;;6.83;3.37;;;;;;;;;;5055765;28;20459;-78
2021/09/28 06:28:55;;;;;;;5.10;2.80;;;;;;;;;;5061073;28;20856;-84
2021/09/28 06:31:24;;;;;;;9.33;3.00;;;;;;;;;;5079389;28;20460;-85
2021/09/28 06:33:51;;;;;;;7.87;3.30;;;;;;;;;;5066778;28;20444;-82
2021/09/28 06:36:18;;;;;;;5.40;2.80;;;;;;;;;;5068170;28;20448;-82
2021/09/28 06:38:45;;;;;;;6.10;2.40;;;;;;;;;;5070338;28;20937;-81
2021/09/28 06:41:12;;;;;;;4.90;2.10;;;;;;;;;;5066915;28;20480;-82
2021/09/28 06:43:40;;;;;;;6.47;2.97;;;;;;;;;;5065896;28;20449;-81
2021/09/28 06:46:07;;;;;;;4.23;2.30;;;;;;;;;;5068164;28;20983;-82
2021/09/28 06:48:35;;;;;;;3.80;2.43;;;;;;;;;;5062394;28;20831;-82
2021/09/28 06:51:02;;;;;;;5.20;2.40;;;;;;;;;;5070631;28;20466;-83
2021/09/28 06:53:29;;;;;;;4.30;2.47;;;;;;;;;;5064205;28;20458;-82
2021/09/28 06:55:57;;;;;;;7.70;2.20;;;;;;;;;;5065906;28;20483;-81
2021/09/28 06:58:24;;;;;;;5.40;2.07;;;;;;;;;;5068179;28;20449;-82
2021/09/28 07:00:51;;;;;;;6.80;2.53;;;;;;;;;;5064383;28;20474;-82
2021/09/28 07:03:19;;;;;;;4.20;2.20;;;;;;;;;;5073297;28;20439;-82
2021/09/28 07:05:48;;;;;;;4.57;2.40;;;;;;;;;;5073822;28;20443;-83
2021/09/28 07:08:15;;;;;;;7.67;3.90;;;;;;;;;;5065942;28;20459;-82
2021/09/28 07:10:43;;;;;;;10.37;3.83;;;;;;;;;;5053886;28;20475;-83
2021/09/28 07:13:10;;;;;;;10.57;4.63;;;;;;;;;;5066037;28;20913;-82
2021/09/28 07:15:37;;;;;;;6.53;3.47;;;;;;;;;;5061922;28;20480;-83
2021/09/28 07:18:05;;;;;;;9.47;3.73;;;;;;;;;;5072926;28;20443;-82
2021/09/28 07:20:32;;;;;;;12.43;3.37;;;;;;;;;;5072552;28;20478;-83
2021/09/28 07:23:01;;;;;;;7.93;3.10;;;;;;;;;;5072202;28;20794;-83
2021/09/28 07:25:28;;;;;;;6.23;2.90;;;;;;;;;;5067853;28;20988;-83
2021/09/28 07:27:58;;;;;;;5.03;2.50;;;;;;;;;;5055379;28;20460;-83
2021/09/28 07:33:02;;;;;;;15.30;3.40;;;;;;;;;;5095743;22;20488;-80
2021/09/28 07:35:29;;;;;;;6.93;2.97;;;;;;;;;;5015633;28;20477;-79
2021/09/28 07:37:56;;;;;;;7.33;3.43;;;;;;;;;;5031496;28;20925;-79
2021/09/28 07:40:25;;;;;;;6.90;3.70;;;;;;;;;;5018562;28;20481;-80
2021/09/28 07:42:52;;;;;;;9.40;3.80;;;;;;;;;;5027726;28;20461;-79
2021/09/28 07:45:19;;;;;;;11.27;3.83;;;;;;;;;;5013418;28;20450;-79
2021/09/28 07:47:47;;;;;;;8.37;4.10;;;;;;;;;;5029343;28;20469;-80
2021/09/28 07:50:14;;;;;;;7.90;3.60;;;;;;;;;;5014271;28;20488;-80
2021/09/28 07:52:41;;;;;;;5.20;3.23;;;;;;;;;;5033634;28;20532;-80
2021/09/28 07:55:09;;;;;;;11.00;4.00;;;;;;;;;;5004141;28;20502;-80
2021/09/28 07:57:38;;;;;;;8.10;4.07;;;;;;;;;;5017616;28;20454;-80
2021/09/28 08:00:06;;;;;;;5.97;4.10;;;;;;;;;;5017498;28;20824;-79
2021/09/28 08:02:35;;;;;;;6.53;3.87;;;;;;;;;;5024120;28;20453;-80
2021/09/28 08:05:02;;;;;;;7.83;3.90;;;;;;;;;;5026125;28;20453;-80
2021/09/28 08:07:29;;;;;;;8.67;3.60;;;;;;;;;;5032765;28;20448;-80
2021/09/28 08:09:56;;;;;;;5.40;3.27;;;;;;;;;;5029568;28;20970;-80
2021/09/28 08:12:23;;;;;;;5.30;3.20;;;;;;;;;;5027565;28;20453;-80
2021/09/28 08:14:53;;;;;;;6.57;3.40;;;;;;;;;;5027992;28;20485;-81
2021/09/28 08:17:21;;;;;;;4.83;2.80;;;;;;;;;;5011520;28;20461;-81
2021/09/28 08:19:51;;;;;;;6.27;3.00;;;;;;;;;;5031211;28;20509;-80
2021/09/28 08:22:19;;;;;;;7.70;3.70;;;;;;;;;;5030336;28;20461;-80
2021/09/28 08:24:50;;;;;;;5.30;3.00;;;;;;;;;;5030919;28;20462;-81
2021/09/28 08:29:59;;;;;;;7.73;3.43;;;;;;;;;;5025486;28;20469;-81
2021/09/28 08:32:27;;;;;;;6.20;3.87;;;;;;;;;;5031056;28;20829;-81
2021/09/28 08:34:54;;;;;;;5.23;4.10;;;;;;;;;;5021656;28;20513;-81
2021/09/28 08:37:24;;;;;;;8.83;3.33;;;;;;;;;;5022007;28;20458;-80
2021/09/28 08:39:51;;;;;;;7.97;3.73;;;;;;;;;;5012619;28;20820;-81
2021/09/28 08:42:18;;;;;;;6.57;3.30;;;;;;;;;;5025368;28;20931;-81
2021/09/28 08:44:45;;;;;;;5.30;3.50;;;;;;;;;;5029215;28;20453;-81
2021/09/28 08:47:14;;;;;;;6.63;3.47;;;;;;;;;;5011985;28;20430;-81
2021/09/28 08:49:41;;;;;;;7.20;3.40;;;;;;;;;;5026204;28;20482;-81
2021/09/28 08:52:10;;;;;;;6.47;3.13;;;;;;;;;;5028320;28;21212;-80
2021/09/28 08:54:37;;;;;;;5.47;3.53;;;;;;;;;;5004484;28;20455;-80
2021/09/28 08:57:05;;;;;;;7.77;3.80;;;;;;;;;;5008090;28;21089;-81
2021/09/28 08:59:44;;;;;;;10.00;4.17;;;;;;;;;;5017304;28;20482;-78
2021/09/28 09:02:12;;;;;;;5.83;3.77;;;;;;;;;;5023619;28;20458;-80
2021/09/28 09:04:42;;;;;;;8.67;3.80;;;;;;;;;;5021344;28;20547;-81
2021/09/28 09:07:25;;;;;;;6.03;3.63;;;;;;;;;;5024600;28;20462;-81
2021/09/28 09:09:53;;;;;;;9.57;3.93;;;;;;;;;;5009957;28;20450;-80
2021/09/28 09:12:35;;;;;;;9.90;4.37;;;;;;;;;;5017437;28;20440;-82
2021/09/28 09:15:17;;;;;;;9.50;4.40;;;;;;;;;;5012350;28;20831;-79
2021/09/28 09:17:44;;;;;;;7.73;4.00;;;;;;;;;;5018885;28;20466;-83
2021/09/28 09:20:27;;;;;;;9.80;3.60;;;;;;;;;;5017154;28;20474;-78
2021/09/28 09:22:55;;;;;;;9.00;3.70;;;;;;;;;;5009922;28;20508;-79
2021/09/28 09:25:23;;;;;;;13.07;4.10;;;;;;;;;;5009577;28;20438;-80
2021/09/28 09:27:51;;;;;;;8.00;3.60;;;;;;;;;;5021352;28;20967;-77
2021/09/28 09:30:20;;;;;;;7.77;3.60;;;;;;;;;;5026883;28;20458;-79
2021/09/28 09:32:48;;;;;;;7.23;3.53;;;;;;;;;;5024166;28;20456;-80
2021/09/28 09:35:30;;;;;;;3.47;2.53;;;;;;;;;;5027834;28;20529;-77
2021/09/28 09:38:06;;;;;;;11.37;4.13;;;;;;;;;;5007892;28;20825;-77
2021/09/28 09:40:34;;;;;;;8.30;2.90;;;;;;;;;;5004221;28;20474;-79
2021/09/28 09:43:01;;;;;;;7.03;2.70;;;;;;;;;;5024406;28;20458;-81
2021/09/28 09:45:29;;;;;;;5.17;3.00;;;;;;;;;;5021990;28;21020;-80
2021/09/28 09:47:56;;;;;;;4.23;2.43;;;;;;;;;;5026409;28;20439;-80
2021/09/28 09:50:24;;;;;;;7.30;2.97;;;;;;;;;;5028955;28;20458;-80
2021/09/28 09:53:07;;;;;;;4.63;2.47;;;;;;;;;;5028603;28;20425;-80
2021/09/28 09:55:38;;;;;;;9.67;2.37;;;;;;;;;;5003010;28;20518;-80
2021/09/28 09:58:06;;;;;;;9.80;3.50;;;;;;;;;;5003304;28;20571;-80
2021/09/28 10:00:33;;;;;;;6.80;2.77;;;;;;;;;;5025192;28;20471;-80
2021/09/28 10:03:01;;;;;;;6.97;2.73;;;;;;;;;;5028039;28;20424;-80
2021/09/28 10:05:28;;;;;;;3.67;2.67;;;;;;;;;;5017378;28;21192;-80
2021/09/28 10:07:57;;;;;;;6.60;2.83;;;;;;;;;;5019012;28;20432;-79
2021/09/28 10:10:24;;;;;;;4.97;2.00;;;;;;;;;;5027459;28;20477;-83
2021/09/28 10:12:52;;;;;;;4.60;2.13;;;;;;;;;;5025289;28;20947;-83
2021/09/28 10:15:20;;;;;;;5.43;2.40;;;;;;;;;;5019336;28;20461;-80
2021/09/28 10:17:48;;;;;;;5.23;2.23;;;;;;;;;;5029262;28;20799;-80
2021/09/28 10:20:28;;;;;;;5.23;2.30;;;;;;;;;;5027622;28;20459;-84
2021/09/28 10:22:55;;;;;;;7.63;2.27;;;;;;;;;;5019287;28;20997;-82
2021/09/28 10:25:34;;;;;;;7.00;2.27;;;;;;;;;;5001252;28;20440;-81
2021/09/28 10:30:58;;;;;;;4.70;1.90;;;;;;;;;;5027129;28;20461;-80
2021/09/28 10:33:28;;;;;;;8.10;2.50;;;;;;;;;;5022787;28;20790;-80
2021/09/28 10:35:56;;;;;;;4.60;2.20;;;;;;;;;;5016346;28;20463;-78
2021/09/28 10:38:38;;;;;;;4.23;2.03;;;;;;;;;;5033675;28;20431;-79
2021/09/28 10:41:05;;;;;;;6.10;2.40;;;;;;;;;;5012261;28;20855;-80
2021/09/28 10:43:34;;;;;;;7.97;2.73;;;;;;;;;;5022692;28;20459;-79
2021/09/28 10:46:07;;;;;;;4.73;2.40;;;;;;;;;;5032985;28;20420;-80
2021/09/28 10:48:38;;;;;;;5.10;2.40;;;;;;;;;;5032975;28;20420;-79
2021/09/28 10:51:10;;;;;;;4.87;2.20;;;;;;;;;;5004811;28;20454;-79
2021/09/28 10:56:23;;;;;;;7.23;2.60;;;;;;;;;;4994086;28;20462;-80
2021/09/28 10:58:53;;;;;;;3.20;2.23;;;;;;;;;;5020807;28;20475;-82
2021/09/28 11:01:21;;;;;;;6.17;1.90;;;;;;;;;;5021150;28;20440;-79
2021/09/28 11:03:55;;;;;;;9.67;2.03;;;;;;;;;;5030020;28;20982;-79
2021/09/28 11:06:37;;;;;;;5.27;2.73;;;;;;;;;;5025256;28;20575;-79
2021/09/28 11:11:40;;;;;;;6.60;2.40;;;;;;;;;;5497590;23;21034;-79
2021/09/28 11:14:09;;;;;;;5.40;1.70;;;;;;;;;;5057324;28;20422;-79
2021/09/28 11:16:53;;;;;;;2.33;1.53;;;;;;;;;;5076208;28;20866;-80
2021/09/28 11:19:22;;;;;;;8.40;3.57;;;;;;;;;;4996717;28;21008;-79
2021/09/28 11:21:49;;;;;;;3.87;2.23;;;;;;;;;;4983492;28;20437;-81
2021/09/28 11:24:21;;;;;;;4.83;2.03;;;;;;;;;;4981513;28;20457;-83
2021/09/28 11:26:50;;;;;;;3.33;2.00;;;;;;;;;;4967587;28;20439;-82
2021/09/28 11:29:22;;;;;;;5.37;2.70;;;;;;;;;;5002982;28;20548;-84
2021/09/28 11:31:51;;;;;;;4.40;2.33;;;;;;;;;;5001638;28;20459;-81
2021/09/28 11:34:28;;;;;;;3.40;2.10;;;;;;;;;;4986401;28;20466;-79
2021/09/28 11:37:01;;;;;;;3.90;1.90;;;;;;;;;;4993987;28;20820;-81
2021/09/28 11:39:30;;;;;;;5.77;3.17;;;;;;;;;;4986891;28;20526;-78
2021/09/28 11:41:57;;;;;;;4.13;1.90;;;;;;;;;;4980818;28;20526;-78
2021/09/28 11:44:32;;;;;;;6.27;2.10;;;;;;;;;;4994126;28;20442;-81
2021/09/28 11:47:00;;;;;;;4.60;2.10;;;;;;;;;;4968689;28;20469;-84
2021/09/28 11:49:28;;;;;;;3.37;2.30;;;;;;;;;;4974883;28;20463;-81
2021/09/28 11:51:55;;;;;;;2.63;1.73;;;;;;;;;;5012780;28;20404;-81
2021/09/28 11:54:22;;;;;;;6.13;2.23;;;;;;;;;;5034250;28;20475;-87
2021/09/28 11:56:52;;;;;;;6.87;2.67;;;;;;;;;;5055064;28;20492;-82
2021/09/28 11:59:21;;;;;;;3.20;1.70;;;;;;;;;;5018347;28;20803;-79
2021/09/28 12:01:50;;;;;;;5.93;2.03;;;;;;;;;;5004900;28;20439;-85
2021/09/28 12:04:21;;;;;;;3.67;1.80;;;;;;;;;;5012222;28;20930;-84
2021/09/28 12:09:49;;;;;;;4.00;2.13;;;;;;;;;;5004821;28;20988;-80
2021/09/28 12:12:17;;;;;;;2.43;1.50;;;;;;;;;;5012101;28;20485;-84
2021/09/28 12:14:45;;;;;;;2.97;1.93;;;;;;;;;;5017312;28;20815;-84
2021/09/28 12:17:14;;;;;;;4.30;1.90;;;;;;;;;;5025360;28;20489;-80
2021/09/28 12:19:44;;;;;;;7.63;2.43;;;;;;;;;;5041662;28;20445;-78
2021/09/28 12:22:12;;;;;;;3.70;1.80;;;;;;;;;;5037874;28;20412;-83
2021/09/28 12:24:44;;;;;;;3.50;2.00;;;;;;;;;;5022027;28;20961;-83
2021/09/28 12:27:11;;;;;;;5.57;1.60;;;;;;;;;;5028293;28;20945;-84
2021/09/28 12:29:40;;;;;;;5.30;2.50;;;;;;;;;;5019613;28;20439;-83
2021/09/28 12:32:08;;;;;;;4.13;1.90;;;;;;;;;;5032221;28;20487;-82
2021/09/28 12:34:48;;;;;;;4.77;1.90;;;;;;;;;;5032411;28;20491;-77
2021/09/28 12:37:18;;;;;;;3.40;1.87;;;;;;;;;;5034501;28;20483;-81
2021/09/28 12:40:00;;;;;;;3.90;2.23;;;;;;;;;;5049596;28;20865;-82
2021/09/28 12:42:31;;;;;;;4.57;2.07;;;;;;;;;;5042046;28;20445;-81
2021/09/28 12:44:59;;;;;;;3.83;1.70;;;;;;;;;;5024937;28;20506;-81
2021/09/28 12:47:29;;;;;;;4.30;2.00;;;;;;;;;;5030284;28;20787;-80
2021/09/28 12:49:56;;;;;;;4.30;2.00;;;;;;;;;;5027712;28;20579;-81
2021/09/28 12:52:25;;;;;;;4.10;1.87;;;;;;;;;;5037718;28;20425;-87
2021/09/28 12:54:53;;;;;;;4.10;1.93;;;;;;;;;;5025100;28;20478;-85
2021/09/28 12:57:20;;;;;;;4.10;2.20;;;;;;;;;;5036849;28;20556;-77
2021/09/28 12:59:48;;;;;;;5.10;2.23;;;;;;;;;;5023966;28;20452;-77
2021/09/28 13:02:29;;;;;;;3.70;1.83;;;;;;;;;;5038750;28;20434;-79
2021/09/28 13:04:59;;;;;;;5.00;2.10;;;;;;;;;;5039014;28;20515;-82
2021/09/28 13:07:28;;;;;;;2.33;2.00;;;;;;;;;;5028166;28;20452;-80
2021/09/28 13:09:58;;;;;;;3.70;1.80;;;;;;;;;;5035946;28;20484;-82
2021/09/28 13:12:26;;;;;;;5.07;1.80;;;;;;;;;;5031947;28;20499;-87
2021/09/28 13:14:53;;;;;;;3.90;1.60;;;;;;;;;;5035075;28;20440;-80
2021/09/28 13:17:20;;;;;;;4.27;1.90;;;;;;;;;;5029733;28;20474;-82
2021/09/28 13:19:47;;;;;;;4.47;2.10;;;;;;;;;;5026777;28;20481;-80
2021/09/28 13:22:16;;;;;;;5.93;1.97;;;;;;;;;;5031624;28;20456;-79
2021/09/28 13:24:48;;;;;;;4.00;1.87;;;;;;;;;;5041708;28;20881;-82
2021/09/28 13:27:15;;;;;;;5.00;1.87;;;;;;;;;;5054410;28;20445;-85
2021/09/28 13:29:44;;;;;;;3.47;1.80;;;;;;;;;;5036964;28;20483;-77
2021/09/28 13:32:11;;;;;;;3.63;1.67;;;;;;;;;;5033298;28;20417;-81
2021/09/28 13:34:42;;;;;;;3.77;2.20;;;;;;;;;;5031486;28;20445;-83
2021/09/28 13:37:09;;;;;;;4.57;1.90;;;;;;;;;;5030155;28;20496;-79
2021/09/28 13:39:38;;;;;;;4.10;1.80;;;;;;;;;;5037992;28;20917;-86
2021/09/28 13:42:06;;;;;;;5.13;1.83;;;;;;;;;;5040610;28;20468;-81
2021/09/28 13:44:35;;;;;;;7.77;2.00;;;;;;;;;;5047449;28;21021;-82
2021/09/28 13:47:04;;;;;;;5.20;2.17;;;;;;;;;;5034117;28;21039;-81
2021/09/28 13:49:31;;;;;;;4.30;2.07;;;;;;;;;;5025408;28;20477;-82
2021/09/28 13:51:58;;;;;;;3.20;1.83;;;;;;;;;;5032849;28;20460;-87
2021/09/28 13:54:26;;;;;;;4.50;2.13;;;;;;;;;;5030943;28;20436;-82
2021/09/28 13:56:53;;;;;;;3.77;2.00;;;;;;;;;;5024634;28;20493;-84
2021/09/28 13:59:24;;;;;;;6.00;1.93;;;;;;;;;;5030860;28;20472;-85
2021/09/28 14:01:52;;;;;;;5.57;2.10;;;;;;;;;;5038081;28;20541;-86
2021/09/28 14:04:19;;;;;;;5.57;2.37;;;;;;;;;;5054835;28;20451;-81
2021/09/28 14:06:46;;;;;;;5.90;2.27;;;;;;;;;;5038419;28;20451;-85
2021/09/28 14:09:19;;;;;;;5.33;1.70;;;;;;;;;;5031511;28;20495;-81
2021/09/28 14:14:39;;;;;;;7.07;2.10;;;;;;;;;;5025198;28;20470;-81
2021/09/28 14:17:06;;;;;;;6.10;1.80;;;;;;;;;;5029935;28;20481;-85
2021/09/28 14:19:33;;;;;;;3.73;2.10;;;;;;;;;;5029469;28;20474;-80
2021/09/28 14:22:00;;;;;;;3.47;1.93;;;;;;;;;;5040545;28;20475;-81
2021/09/28 14:24:27;;;;;;;4.10;1.63;;;;;;;;;;5029327;28;21885;-82
2021/09/28 14:26:55;;;;;;;2.67;1.60;;;;;;;;;;5033523;28;20836;-82
2021/09/28 14:29:22;;;;;;;2.40;2.03;;;;;;;;;;5023399;28;20491;-77
2021/09/28 14:31:52;;;;;;;3.50;2.10;;;;;;;;;;5024376;28;20726;-78
2021/09/28 14:34:21;;;;;;;3.37;1.50;;;;;;;;;;5032058;28;20454;-78
2021/09/28 14:36:48;;;;;;;3.10;1.63;;;;;;;;;;5042999;28;21040;-85
2021/09/28 14:39:16;;;;;;;5.17;2.00;;;;;;;;;;5031984;28;20456;-84
2021/09/28 14:41:43;;;;;;;5.90;2.13;;;;;;;;;;5037683;28;20480;-83
2021/09/28 14:44:11;;;;;;;5.90;1.90;;;;;;;;;;5030473;28;20435;-82
2021/09/28 14:46:38;;;;;;;3.20;1.90;;;;;;;;;;5033085;28;20432;-79
2021/09/28 14:49:06;;;;;;;5.03;2.03;;;;;;;;;;5031062;28;20447;-85
2021/09/28 14:51:33;;;;;;;9.23;1.83;;;;;;;;;;5027223;28;20461;-81
2021/09/28 14:54:01;;;;;;;5.43;1.93;;;;;;;;;;5039712;28;20416;-84
2021/09/28 14:56:28;;;;;;;5.10;2.20;;;;;;;;;;5037049;28;20512;-81
2021/09/28 14:58:55;;;;;;;3.80;1.97;;;;;;;;;;5025971;28;20452;-83
2021/09/28 15:01:22;;;;;;;3.70;1.90;;;;;;;;;;5032943;28;20448;-81
2021/09/28 15:03:49;;;;;;;4.97;2.10;;;;;;;;;;5028925;28;20461;-83
2021/09/28 15:06:21;;;;;;;5.50;2.13;;;;;;;;;;5033220;28;20439;-83
2021/09/28 15:08:49;;;;;;;2.13;1.63;;;;;;;;;;5028798;28;20522;-80
2021/09/28 15:11:16;;;;;;;5.57;1.97;;;;;;;;;;5031332;28;20579;-79
2021/09/28 15:13:43;;;;;;;5.77;2.00;;;;;;;;;;5052981;28;20875;-82
2021/09/28 15:16:13;;;;;;;4.10;2.10;;;;;;;;;;5037823;28;20454;-82